createdAt,value
2024-03-12T00:00:17.947Z,99.29
2024-03-12T00:00:50.281Z,99.35
2024-03-12T00:01:22.488Z,99.36
2024-03-12T00:01:56.947Z,99.43
2024-03-12T00:02:30.188Z,99.47
2024-03-12T00:03:01.861Z,99.49
2024-03-12T00:03:33.643Z,99.51
2024-03-12T00:04:05.543Z,99.34
2024-03-12T00:04:38.431Z,99.29
2024-03-12T00:05:10.307Z,99.21
2024-03-12T00:05:42.479Z,99.16
2024-03-12T00:06:14.267Z,99.18
2024-03-12T00:06:46.179Z,99.22
2024-03-12T00:07:23.236Z,99.16
2024-03-12T00:07:55.070Z,99.21
2024-03-12T00:08:29.179Z,99.31
2024-03-12T00:09:00.876Z,99.44
2024-03-12T00:09:35.055Z,99.72
2024-03-12T00:10:10.323Z,99.85
2024-03-12T00:10:42.155Z,99.41
2024-03-12T00:11:15.164Z,99.43
2024-03-12T00:11:46.978Z,99.56
2024-03-12T00:12:19.246Z,99.55
2024-03-12T00:12:53.266Z,99.65
2024-03-12T00:13:25.247Z,99.63
2024-03-12T00:13:57.589Z,99.58
2024-03-12T00:14:29.822Z,99.68
2024-03-12T00:15:01.693Z,99.70
2024-03-12T00:15:33.688Z,99.60
2024-03-12T00:16:06.962Z,99.49
2024-03-12T00:16:41.855Z,99.49
2024-03-12T00:17:15.738Z,99.62
2024-03-12T00:17:50.575Z,99.57
2024-03-12T00:18:26.843Z,99.80
2024-03-12T00:18:58.766Z,99.68
2024-03-12T00:19:30.425Z,99.70
2024-03-12T00:20:07.371Z,99.83
2024-03-12T00:20:40.645Z,99.99
2024-03-12T00:21:13.637Z,99.99
2024-03-12T00:21:45.416Z,99.99
2024-03-12T00:22:17.609Z,99.99
2024-03-12T00:22:50.285Z,99.99
2024-03-12T00:23:26.628Z,99.99
2024-03-12T00:24:00.034Z,99.99
2024-03-12T00:24:32.113Z,99.99
2024-03-12T00:25:09.154Z,99.99
2024-03-12T00:25:42.005Z,99.99
2024-03-12T00:26:14.847Z,99.99
2024-03-12T00:26:48.812Z,99.99
2024-03-12T00:27:20.979Z,99.99
2024-03-12T00:27:56.211Z,99.99
2024-03-12T00:28:28.012Z,99.99
2024-03-12T00:29:00.544Z,99.99
2024-03-12T00:29:32.547Z,99.99
2024-03-12T00:30:04.633Z,99.99
2024-03-12T00:30:36.718Z,99.99
2024-03-12T00:31:10.303Z,99.99
2024-03-12T00:31:42.031Z,99.99
2024-03-12T00:32:13.715Z,99.99
2024-03-12T00:32:49.042Z,99.99
2024-03-12T00:33:22.127Z,99.99
2024-03-12T00:33:53.913Z,99.99
2024-03-12T00:34:26.923Z,99.99
2024-03-12T00:34:58.595Z,99.99
2024-03-12T00:35:30.670Z,99.99
2024-03-12T00:36:02.408Z,99.99
2024-03-12T00:36:34.072Z,99.99
2024-03-12T00:37:06.174Z,99.99
2024-03-12T00:37:42.455Z,99.99
2024-03-12T00:38:14.204Z,99.99
2024-03-12T00:38:47.999Z,99.99
2024-03-12T00:39:23.295Z,99.99
2024-03-12T00:39:56.801Z,99.99
2024-03-12T00:40:34.924Z,99.99
2024-03-12T00:41:06.986Z,99.99
2024-03-12T00:41:38.625Z,99.99
2024-03-12T00:42:10.348Z,99.99
2024-03-12T00:42:42.687Z,99.99
2024-03-12T00:43:15.510Z,99.99
2024-03-12T00:43:47.652Z,99.99
2024-03-12T00:44:21.018Z,99.99
2024-03-12T00:44:53.122Z,99.99
2024-03-12T00:45:27.575Z,99.99
2024-03-12T00:46:01.228Z,99.99
2024-03-12T00:46:32.915Z,99.99
2024-03-12T00:47:04.650Z,99.99
2024-03-12T00:47:37.981Z,99.99
2024-03-12T00:48:11.443Z,99.99
2024-03-12T00:48:43.535Z,99.99
2024-03-12T00:49:15.288Z,99.99
2024-03-12T00:49:46.958Z,99.99
2024-03-12T00:50:18.697Z,99.99
2024-03-12T00:50:50.365Z,99.99
2024-03-12T00:51:24.140Z,99.99
2024-03-12T00:51:55.862Z,99.99
2024-03-12T00:52:27.706Z,99.99
2024-03-12T00:53:02.333Z,99.99
2024-03-12T00:53:34.051Z,99.99
2024-03-12T00:54:06.332Z,99.99
2024-03-12T00:54:38.188Z,99.99
2024-03-12T00:55:10.832Z,99.99
2024-03-12T00:55:43.875Z,99.99
2024-03-12T00:56:16.573Z,99.99
2024-03-12T00:56:50.972Z,99.99
2024-03-12T00:57:24.012Z,99.99
2024-03-12T00:57:57.034Z,99.99
2024-03-12T00:58:29.738Z,99.99
2024-03-12T00:59:01.428Z,99.99
2024-03-12T00:59:33.304Z,99.99
2024-03-12T01:00:17.818Z,99.99
2024-03-12T01:00:51.025Z,99.99
2024-03-12T01:01:23.065Z,99.99
2024-03-12T01:01:56.488Z,99.99
2024-03-12T01:02:31.536Z,99.99
2024-03-12T01:03:03.375Z,99.99
2024-03-12T01:03:35.809Z,99.99
2024-03-12T01:04:07.662Z,99.99
2024-03-12T01:04:42.519Z,99.99
2024-03-12T01:05:14.320Z,99.99
2024-03-12T01:05:47.264Z,99.99
2024-03-12T01:06:18.964Z,99.99
2024-03-12T01:06:51.289Z,99.99
2024-03-12T01:07:23.250Z,99.99
2024-03-12T01:08:04.614Z,99.99
2024-03-12T01:08:36.298Z,99.99
2024-03-12T01:09:08.563Z,99.99
2024-03-12T01:09:43.279Z,99.99
2024-03-12T01:10:15.710Z,99.99
2024-03-12T01:10:47.780Z,99.99
2024-03-12T01:11:19.639Z,99.99
2024-03-12T01:11:54.163Z,99.99
2024-03-12T01:12:25.948Z,99.99
2024-03-12T01:13:00.043Z,99.99
2024-03-12T01:13:31.814Z,99.99
2024-03-12T01:14:04.956Z,99.99
2024-03-12T01:14:38.252Z,99.99
2024-03-12T01:15:10.210Z,99.99
2024-03-12T01:15:42.231Z,99.99
2024-03-12T01:16:16.233Z,99.99
2024-03-12T01:16:48.296Z,99.99
2024-03-12T01:17:21.991Z,99.99
2024-03-12T01:17:55.088Z,99.99
2024-03-12T01:18:26.848Z,99.99
2024-03-12T01:18:58.881Z,99.99
2024-03-12T01:19:30.578Z,99.99
2024-03-12T01:20:02.249Z,99.99
2024-03-12T01:20:36.864Z,99.99
2024-03-12T01:21:09.506Z,99.99
2024-03-12T01:21:41.651Z,99.99
2024-03-12T01:22:13.288Z,99.99
2024-03-12T01:22:45.079Z,99.99
2024-03-12T01:23:16.802Z,99.99
2024-03-12T01:23:50.093Z,99.99
2024-03-12T01:24:21.955Z,99.99
2024-03-12T01:24:55.184Z,99.99
2024-03-12T01:25:30.564Z,99.99
2024-03-12T01:26:02.336Z,99.99
2024-03-12T01:26:35.359Z,99.99
2024-03-12T01:27:07.403Z,99.99
2024-03-12T01:27:39.890Z,99.99
2024-03-12T01:28:12.288Z,99.99
2024-03-12T01:28:44.117Z,99.99
2024-03-12T01:29:16.876Z,99.99
2024-03-12T01:29:49.491Z,99.99
2024-03-12T01:30:27.923Z,99.99
2024-03-12T01:31:01.656Z,99.99
2024-03-12T01:31:33.359Z,99.99
2024-03-12T01:32:08.128Z,99.99
2024-03-12T01:32:40.312Z,99.99
2024-03-12T01:33:12.106Z,99.99
2024-03-12T01:33:43.903Z,99.99
2024-03-12T01:34:17.155Z,99.99
2024-03-12T01:34:48.872Z,99.99
2024-03-12T01:35:26.209Z,99.99
2024-03-12T01:36:06.804Z,99.99
2024-03-12T01:36:39.145Z,99.99
2024-03-12T01:37:17.224Z,99.99
2024-03-12T01:37:53.038Z,99.99
2024-03-12T01:38:25.435Z,99.99
2024-03-12T01:38:57.051Z,99.99
2024-03-12T01:39:29.646Z,99.99
2024-03-12T01:40:01.522Z,99.99
2024-03-12T01:40:35.154Z,99.99
2024-03-12T01:41:06.822Z,99.99
2024-03-12T01:41:44.179Z,99.99
2024-03-12T01:42:15.861Z,99.99
2024-03-12T01:42:52.634Z,99.99
2024-03-12T01:43:24.612Z,99.99
2024-03-12T01:44:00.624Z,99.99
2024-03-12T01:44:32.966Z,99.99
2024-03-12T01:45:06.961Z,99.99
2024-03-12T01:45:39.716Z,99.99
2024-03-12T01:46:11.784Z,99.99
2024-03-12T01:46:43.860Z,99.99
2024-03-12T01:47:15.712Z,99.99
2024-03-12T01:47:48.996Z,99.99
2024-03-12T01:48:24.140Z,99.99
2024-03-12T01:48:57.385Z,99.99
2024-03-12T01:49:29.696Z,99.99
2024-03-12T01:50:01.344Z,99.99
2024-03-12T01:50:33.477Z,99.99
2024-03-12T01:51:07.362Z,99.99
2024-03-12T01:51:39.221Z,99.99
2024-03-12T01:52:11.148Z,99.99
2024-03-12T01:52:44.934Z,99.99
2024-03-12T01:53:17.563Z,99.99
2024-03-12T01:53:49.184Z,99.99
2024-03-12T01:54:21.231Z,99.99
2024-03-12T01:54:53.120Z,99.99
2024-03-12T01:55:24.896Z,99.99
2024-03-12T01:55:56.538Z,99.99
2024-03-12T01:56:28.218Z,99.99
2024-03-12T01:57:00.388Z,99.99
2024-03-12T01:57:32.358Z,99.99
2024-03-12T01:58:04.303Z,99.99
2024-03-12T01:58:35.994Z,99.99
2024-03-12T01:59:07.734Z,99.99
2024-03-12T01:59:39.473Z,99.99
2024-03-12T02:00:11.894Z,99.99
2024-03-12T02:00:45.524Z,99.99
2024-03-12T02:01:21.325Z,99.99
2024-03-12T02:02:02.801Z,99.99
2024-03-12T02:02:34.572Z,99.99
2024-03-12T02:03:08.100Z,99.99
2024-03-12T02:03:39.839Z,99.99
2024-03-12T02:04:13.619Z,99.99
2024-03-12T02:04:48.723Z,99.99
2024-03-12T02:05:21.006Z,99.99
2024-03-12T02:05:52.816Z,99.99
2024-03-12T02:06:24.699Z,99.99
2024-03-12T02:06:56.531Z,99.99
2024-03-12T02:07:28.395Z,99.99
2024-03-12T02:08:00.412Z,99.99
2024-03-12T02:08:33.524Z,99.99
2024-03-12T02:09:05.589Z,99.99
2024-03-12T02:09:37.438Z,99.99
2024-03-12T02:10:09.941Z,99.99
2024-03-12T02:10:41.640Z,99.99
2024-03-12T02:11:13.459Z,99.99
2024-03-12T02:11:45.652Z,99.99
2024-03-12T02:12:17.455Z,99.99
2024-03-12T02:12:49.470Z,99.99
2024-03-12T02:13:22.419Z,99.99
2024-03-12T02:13:54.143Z,99.99
2024-03-12T02:14:25.821Z,99.99
2024-03-12T02:14:57.786Z,99.99
2024-03-12T02:15:29.653Z,99.99
2024-03-12T02:16:01.380Z,99.99
2024-03-12T02:16:33.062Z,99.99
2024-03-12T02:17:06.510Z,99.99
2024-03-12T02:17:41.198Z,99.99
2024-03-12T02:18:13.411Z,99.99
2024-03-12T02:18:45.158Z,99.99
2024-03-12T02:19:18.525Z,99.99
2024-03-12T02:19:50.969Z,99.99
2024-03-12T02:20:23.731Z,99.99
2024-03-12T02:20:55.745Z,99.99
2024-03-12T02:21:27.459Z,99.99
2024-03-12T02:22:00.602Z,99.99
2024-03-12T02:22:32.870Z,99.99
2024-03-12T02:23:05.218Z,99.99
2024-03-12T02:23:44.147Z,99.99
2024-03-12T02:24:15.840Z,99.99
2024-03-12T02:24:48.431Z,99.99
2024-03-12T02:25:20.140Z,99.99
2024-03-12T02:25:51.808Z,99.99
2024-03-12T02:26:23.452Z,99.99
2024-03-12T02:26:55.080Z,99.99
2024-03-12T02:27:27.130Z,99.99
2024-03-12T02:27:59.133Z,99.99
2024-03-12T02:28:30.920Z,99.99
2024-03-12T02:29:02.932Z,99.99
2024-03-12T02:29:35.121Z,99.99
2024-03-12T02:30:11.478Z,99.99
2024-03-12T02:30:44.311Z,99.99
2024-03-12T02:31:16.049Z,99.99
2024-03-12T02:31:47.795Z,99.99
2024-03-12T02:32:19.468Z,99.99
2024-03-12T02:32:51.961Z,99.99
2024-03-12T02:33:24.302Z,99.99
2024-03-12T02:33:56.074Z,99.99
2024-03-12T02:34:30.395Z,99.99
2024-03-12T02:35:02.233Z,99.99
2024-03-12T02:35:36.151Z,99.99
2024-03-12T02:36:08.817Z,99.99
2024-03-12T02:36:41.811Z,99.99
2024-03-12T02:37:13.557Z,99.99
2024-03-12T02:37:45.480Z,99.99
2024-03-12T02:38:17.209Z,99.99
2024-03-12T02:38:48.903Z,99.99
2024-03-12T02:39:20.576Z,99.99
2024-03-12T02:39:52.394Z,99.99
2024-03-12T02:40:24.936Z,99.99
2024-03-12T02:40:56.681Z,99.99
2024-03-12T02:41:29.017Z,99.99
2024-03-12T02:42:01.300Z,99.99
2024-03-12T02:42:32.983Z,99.99
2024-03-12T02:43:04.970Z,99.99
2024-03-12T02:43:37.743Z,99.99
2024-03-12T02:44:09.461Z,99.99
2024-03-12T02:44:41.163Z,99.99
2024-03-12T02:45:17.343Z,99.99
2024-03-12T02:45:51.100Z,99.99
2024-03-12T02:46:22.885Z,99.99
2024-03-12T02:46:55.753Z,99.99
2024-03-12T02:47:28.192Z,99.99
2024-03-12T02:47:59.916Z,99.99
2024-03-12T02:48:31.685Z,99.99
2024-03-12T02:49:04.005Z,99.99
2024-03-12T02:49:37.882Z,99.99
2024-03-12T02:50:10.518Z,99.99
2024-03-12T02:50:42.342Z,99.99
2024-03-12T02:51:14.181Z,99.99
2024-03-12T02:51:46.921Z,99.99
2024-03-12T02:52:18.779Z,99.99
2024-03-12T02:52:50.490Z,99.99
2024-03-12T02:53:22.338Z,99.99
2024-03-12T02:53:54.011Z,99.99
2024-03-12T02:54:28.676Z,99.99
2024-03-12T02:55:02.457Z,99.99
2024-03-12T02:55:40.285Z,99.99
2024-03-12T02:56:13.325Z,99.99
2024-03-12T02:56:45.236Z,99.99
2024-03-12T02:57:17.094Z,99.99
2024-03-12T02:57:49.168Z,99.99
2024-03-12T02:58:26.409Z,99.99
2024-03-12T02:58:58.502Z,99.99
2024-03-12T02:59:31.574Z,99.99
2024-03-12T03:00:12.557Z,99.99
2024-03-12T03:00:44.703Z,99.99
2024-03-12T03:01:16.934Z,99.99
2024-03-12T03:01:48.819Z,99.99
2024-03-12T03:02:20.631Z,99.99
2024-03-12T03:02:55.589Z,99.99
2024-03-12T03:03:28.352Z,99.99
2024-03-12T03:04:00.057Z,99.99
2024-03-12T03:04:37.623Z,99.99
2024-03-12T03:05:13.195Z,99.99
2024-03-12T03:05:45.488Z,99.99
2024-03-12T03:06:18.474Z,99.99
2024-03-12T03:06:54.158Z,99.99
2024-03-12T03:07:28.235Z,99.99
2024-03-12T03:08:00.040Z,99.99
2024-03-12T03:08:32.552Z,99.99
2024-03-12T03:09:06.807Z,99.99
2024-03-12T03:09:38.836Z,99.99
2024-03-12T03:10:11.911Z,99.99
2024-03-12T03:10:45.597Z,99.99
2024-03-12T03:11:17.845Z,99.99
2024-03-12T03:11:49.977Z,99.99
2024-03-12T03:12:21.645Z,99.99
2024-03-12T03:12:53.380Z,99.99
2024-03-12T03:13:25.495Z,99.99
2024-03-12T03:13:57.174Z,99.99
2024-03-12T03:14:29.140Z,99.99
2024-03-12T03:15:00.909Z,99.99
2024-03-12T03:15:33.965Z,99.99
2024-03-12T03:16:06.340Z,99.99
2024-03-12T03:16:38.760Z,99.99
2024-03-12T03:17:11.362Z,99.99
2024-03-12T03:17:44.539Z,99.99
2024-03-12T03:18:17.526Z,99.99
2024-03-12T03:18:49.528Z,99.99
2024-03-12T03:19:21.895Z,99.99
2024-03-12T03:19:53.849Z,99.99
2024-03-12T03:20:25.626Z,99.99
2024-03-12T03:20:57.448Z,99.99
2024-03-12T03:21:29.219Z,99.99
2024-03-12T03:22:00.982Z,99.99
2024-03-12T03:22:32.807Z,99.99
2024-03-12T03:23:04.696Z,99.99
2024-03-12T03:23:43.443Z,99.99
2024-03-12T03:24:15.294Z,99.99
2024-03-12T03:24:47.069Z,99.99
2024-03-12T03:25:18.989Z,99.99
2024-03-12T03:25:50.672Z,99.99
2024-03-12T03:26:22.386Z,99.99
2024-03-12T03:26:54.287Z,99.99
2024-03-12T03:27:25.993Z,99.99
2024-03-12T03:27:57.766Z,99.99
2024-03-12T03:28:29.474Z,99.99
2024-03-12T03:29:01.182Z,99.99
2024-03-12T03:29:36.818Z,99.99
2024-03-12T03:30:11.134Z,99.99
2024-03-12T03:30:43.477Z,99.99
2024-03-12T03:31:15.240Z,99.99
2024-03-12T03:31:49.061Z,99.99
2024-03-12T03:32:22.517Z,99.99
2024-03-12T03:32:54.352Z,99.99
2024-03-12T03:33:27.104Z,99.99
2024-03-12T03:33:59.915Z,99.99
2024-03-12T03:34:33.289Z,99.99
2024-03-12T03:35:05.919Z,99.99
2024-03-12T03:35:37.611Z,99.99
2024-03-12T03:36:09.685Z,99.99
2024-03-12T03:36:44.342Z,99.99
2024-03-12T03:37:16.192Z,99.99
2024-03-12T03:37:48.018Z,99.99
2024-03-12T03:38:20.843Z,99.99
2024-03-12T03:38:52.526Z,99.99
2024-03-12T03:39:30.282Z,99.99
2024-03-12T03:40:05.995Z,99.99
2024-03-12T03:40:37.914Z,99.99
2024-03-12T03:41:10.798Z,99.99
2024-03-12T03:41:44.859Z,99.99
2024-03-12T03:42:16.591Z,99.99
2024-03-12T03:42:49.264Z,99.99
2024-03-12T03:43:21.212Z,99.99
2024-03-12T03:43:52.863Z,99.99
2024-03-12T03:44:25.105Z,99.99
2024-03-12T03:44:56.765Z,99.99
2024-03-12T03:45:28.565Z,99.99
2024-03-12T03:46:00.302Z,99.99
2024-03-12T03:46:32.011Z,99.99
2024-03-12T03:47:03.703Z,99.99
2024-03-12T03:47:36.063Z,99.99
2024-03-12T03:48:08.288Z,99.99
2024-03-12T03:48:40.965Z,99.99
2024-03-12T03:49:12.749Z,99.99
2024-03-12T03:49:47.369Z,99.99
2024-03-12T03:50:19.097Z,99.99
2024-03-12T03:50:50.913Z,99.99
2024-03-12T03:51:22.866Z,99.99
2024-03-12T03:51:54.768Z,99.99
2024-03-12T03:52:26.436Z,99.99
2024-03-12T03:52:58.264Z,99.99
2024-03-12T03:53:29.940Z,99.99
2024-03-12T03:54:02.453Z,99.99
2024-03-12T03:54:34.212Z,99.99
2024-03-12T03:55:10.685Z,99.99
2024-03-12T03:55:42.411Z,99.99
2024-03-12T03:56:17.070Z,99.99
2024-03-12T03:56:49.041Z,99.99
2024-03-12T03:57:20.764Z,99.99
2024-03-12T03:57:52.731Z,99.99
2024-03-12T03:58:24.955Z,99.99
2024-03-12T03:58:59.255Z,99.99
2024-03-12T03:59:32.323Z,99.99
2024-03-12T04:00:14.580Z,99.99
2024-03-12T04:00:46.447Z,99.99
2024-03-12T04:01:19.824Z,99.99
2024-03-12T04:01:51.661Z,99.99
2024-03-12T04:02:23.789Z,99.99
2024-03-12T04:02:55.936Z,99.99
2024-03-12T04:03:27.704Z,99.99
2024-03-12T04:03:59.815Z,99.99
2024-03-12T04:04:32.811Z,99.99
2024-03-12T04:05:04.901Z,99.99
2024-03-12T04:05:37.043Z,99.99
2024-03-12T04:06:08.693Z,99.99
2024-03-12T04:06:46.287Z,99.99
2024-03-12T04:07:20.898Z,99.99
2024-03-12T04:07:52.636Z,99.99
2024-03-12T04:08:24.737Z,99.99
2024-03-12T04:08:56.377Z,99.99
2024-03-12T04:09:28.064Z,99.99
2024-03-12T04:10:00.503Z,99.99
2024-03-12T04:10:32.186Z,99.99
2024-03-12T04:11:04.928Z,99.99
2024-03-12T04:11:37.316Z,99.99
2024-03-12T04:12:09.265Z,99.99
2024-03-12T04:12:48.342Z,99.99
2024-03-12T04:13:20.140Z,99.99
2024-03-12T04:13:55.838Z,99.99
2024-03-12T04:14:27.671Z,99.99
2024-03-12T04:14:59.393Z,99.99
2024-03-12T04:15:31.244Z,99.99
2024-03-12T04:16:03.182Z,99.99
2024-03-12T04:16:34.889Z,99.99
2024-03-12T04:17:06.556Z,99.99
2024-03-12T04:17:38.638Z,99.99
2024-03-12T04:18:12.517Z,99.99
2024-03-12T04:18:45.523Z,99.99
2024-03-12T04:19:17.362Z,99.99
2024-03-12T04:19:49.164Z,99.99
2024-03-12T04:20:22.315Z,99.99
2024-03-12T04:20:56.034Z,99.99
2024-03-12T04:21:28.070Z,99.99
2024-03-12T04:22:00.615Z,99.99
2024-03-12T04:22:32.599Z,99.99
2024-03-12T04:23:04.330Z,99.99
2024-03-12T04:23:36.387Z,99.99
2024-03-12T04:24:08.159Z,99.99
2024-03-12T04:24:40.069Z,99.99
2024-03-12T04:25:13.731Z,99.99
2024-03-12T04:25:45.567Z,99.99
2024-03-12T04:26:17.239Z,99.99
2024-03-12T04:26:48.910Z,99.99
2024-03-12T04:27:22.092Z,99.99
2024-03-12T04:27:54.846Z,99.99
2024-03-12T04:28:26.726Z,99.99
2024-03-12T04:28:58.410Z,99.99
2024-03-12T04:29:30.349Z,99.99
2024-03-12T04:30:06.800Z,99.99
2024-03-12T04:30:40.657Z,99.99
2024-03-12T04:31:12.653Z,99.99
2024-03-12T04:31:44.795Z,99.99
2024-03-12T04:32:16.517Z,99.99
2024-03-12T04:32:48.686Z,99.99
2024-03-12T04:33:20.387Z,99.99
2024-03-12T04:33:54.038Z,99.99
2024-03-12T04:34:25.831Z,99.99
2024-03-12T04:34:57.514Z,99.99
2024-03-12T04:35:29.207Z,99.99
2024-03-12T04:36:00.835Z,99.99
2024-03-12T04:36:34.036Z,99.99
2024-03-12T04:37:06.089Z,99.99
2024-03-12T04:37:38.201Z,99.99
2024-03-12T04:38:09.909Z,99.99
2024-03-12T04:38:41.683Z,99.99
2024-03-12T04:39:32.386Z,99.99
2024-03-12T04:40:12.709Z,99.99
2024-03-12T04:40:45.310Z,99.99
2024-03-12T04:41:22.935Z,99.99
2024-03-12T04:41:54.996Z,99.99
2024-03-12T04:42:28.522Z,99.99
2024-03-12T04:43:00.320Z,99.99
2024-03-12T04:43:32.082Z,99.99
2024-03-12T04:44:03.880Z,99.99
2024-03-12T04:44:35.853Z,99.99
2024-03-12T04:45:09.037Z,99.99
2024-03-12T04:45:45.061Z,99.99
2024-03-12T04:46:16.920Z,99.99
2024-03-12T04:46:48.603Z,99.99
2024-03-12T04:47:21.565Z,99.99
2024-03-12T04:47:53.472Z,99.99
2024-03-12T04:48:25.326Z,99.99
2024-03-12T04:48:57.082Z,99.99
2024-03-12T04:49:28.857Z,99.99
2024-03-12T04:50:00.620Z,99.99
2024-03-12T04:50:32.351Z,99.99
2024-03-12T04:51:04.226Z,99.99
2024-03-12T04:51:35.913Z,99.99
2024-03-12T04:52:07.760Z,99.99
2024-03-12T04:52:39.444Z,99.99
2024-03-12T04:53:11.334Z,99.99
2024-03-12T04:53:43.232Z,99.99
2024-03-12T04:54:15.010Z,99.99
2024-03-12T04:54:47.259Z,99.99
2024-03-12T04:55:19.019Z,99.99
2024-03-12T04:55:51.074Z,99.99
2024-03-12T04:56:22.926Z,99.99
2024-03-12T04:56:54.575Z,99.99
2024-03-12T04:57:26.287Z,99.99
2024-03-12T04:57:58.014Z,99.99
2024-03-12T04:58:30.364Z,99.99
2024-03-12T04:59:02.076Z,99.99
2024-03-12T04:59:33.946Z,99.99
2024-03-12T05:00:15.532Z,99.99
2024-03-12T05:00:48.735Z,99.99
2024-03-12T05:01:20.695Z,99.99
2024-03-12T05:01:53.729Z,99.99
2024-03-12T05:02:25.701Z,99.99
2024-03-12T05:02:57.433Z,99.99
2024-03-12T05:03:29.191Z,99.99
2024-03-12T05:04:08.112Z,99.99
2024-03-12T05:04:44.087Z,99.99
2024-03-12T05:05:19.569Z,99.99
2024-03-12T05:05:51.334Z,99.99
2024-03-12T05:06:23.107Z,99.99
2024-03-12T05:06:54.845Z,99.99
2024-03-12T05:07:26.833Z,99.99
2024-03-12T05:07:58.522Z,99.99
2024-03-12T05:08:30.290Z,99.99
2024-03-12T05:09:01.996Z,99.99
2024-03-12T05:09:33.777Z,99.99
2024-03-12T05:10:05.982Z,99.99
2024-03-12T05:10:37.838Z,99.99
2024-03-12T05:11:09.537Z,99.99
2024-03-12T05:11:41.317Z,99.99
2024-03-12T05:12:12.955Z,99.99
2024-03-12T05:12:45.094Z,99.99
2024-03-12T05:13:18.658Z,99.99
2024-03-12T05:13:50.305Z,99.99
2024-03-12T05:14:22.021Z,99.99
2024-03-12T05:14:53.714Z,99.99
2024-03-12T05:15:25.479Z,99.99
2024-03-12T05:15:57.242Z,99.99
2024-03-12T05:16:29.107Z,99.99
2024-03-12T05:17:00.862Z,99.99
2024-03-12T05:17:32.554Z,99.99
2024-03-12T05:18:04.343Z,99.99
2024-03-12T05:18:36.007Z,99.99
2024-03-12T05:19:11.963Z,99.99
2024-03-12T05:19:43.766Z,99.99
2024-03-12T05:20:19.414Z,99.99
2024-03-12T05:20:52.513Z,99.99
2024-03-12T05:21:25.302Z,99.99
2024-03-12T05:21:57.975Z,99.99
2024-03-12T05:22:29.715Z,99.99
2024-03-12T05:23:03.393Z,99.99
2024-03-12T05:23:35.217Z,99.99
2024-03-12T05:24:07.289Z,99.99
2024-03-12T05:24:38.936Z,99.99
2024-03-12T05:25:20.193Z,99.99
2024-03-12T05:25:53.080Z,99.99
2024-03-12T05:26:27.477Z,99.99
2024-03-12T05:27:04.332Z,99.99
2024-03-12T05:27:40.002Z,99.99
2024-03-12T05:28:12.096Z,99.99
2024-03-12T05:28:44.868Z,99.99
2024-03-12T05:29:16.663Z,99.99
2024-03-12T05:29:53.956Z,99.99
2024-03-12T05:30:26.693Z,99.99
2024-03-12T05:30:58.744Z,99.99
2024-03-12T05:31:39.520Z,99.99
2024-03-12T05:32:20.301Z,99.99
2024-03-12T05:32:55.009Z,99.99
2024-03-12T05:33:31.213Z,99.99
2024-03-12T05:34:03.973Z,99.99
2024-03-12T05:34:40.696Z,99.99
2024-03-12T05:35:19.588Z,99.99
2024-03-12T05:35:56.070Z,99.99
2024-03-12T05:36:32.056Z,99.99
2024-03-12T05:37:05.685Z,99.99
2024-03-12T05:38:02.327Z,99.99
2024-03-12T05:38:35.337Z,99.99
2024-03-12T05:39:07.464Z,99.99
2024-03-12T05:39:49.506Z,99.99
2024-03-12T05:40:30.955Z,99.99
2024-03-12T05:41:11.738Z,99.99
2024-03-12T05:41:50.646Z,99.99
2024-03-12T05:42:40.791Z,99.99
2024-03-12T05:43:31.146Z,99.99
2024-03-12T05:44:21.482Z,99.99
2024-03-12T05:45:11.981Z,99.99
2024-03-12T05:46:02.421Z,99.99
2024-03-12T05:46:52.978Z,99.99
2024-03-12T05:47:45.041Z,99.99
2024-03-12T05:48:16.820Z,99.99
2024-03-12T05:48:51.701Z,99.99
2024-03-12T05:49:23.984Z,99.99
2024-03-12T05:49:56.451Z,99.99
2024-03-12T05:50:29.149Z,99.99
2024-03-12T05:51:00.825Z,99.99
2024-03-12T05:51:33.831Z,99.99
2024-03-12T05:52:05.926Z,99.99
2024-03-12T05:52:37.617Z,99.99
2024-03-12T05:53:10.222Z,99.99
2024-03-12T05:53:43.103Z,99.99
2024-03-12T05:54:15.094Z,99.99
2024-03-12T05:54:46.948Z,99.99
2024-03-12T05:55:18.678Z,99.99
2024-03-12T05:55:50.364Z,99.99
2024-03-12T05:56:22.570Z,99.99
2024-03-12T05:56:54.241Z,99.99
2024-03-12T05:57:25.987Z,99.99
2024-03-12T05:57:57.818Z,99.99
2024-03-12T05:58:29.494Z,99.99
2024-03-12T05:59:01.137Z,99.99
2024-03-12T05:59:32.777Z,99.99
2024-03-12T06:00:05.171Z,99.99
2024-03-12T06:00:36.820Z,99.99
2024-03-12T06:01:09.252Z,99.99
2024-03-12T06:01:41.049Z,99.99
2024-03-12T06:02:12.766Z,99.99
2024-03-12T06:02:45.812Z,99.99
2024-03-12T06:03:17.469Z,99.99
2024-03-12T06:03:51.226Z,99.99
2024-03-12T06:04:23.068Z,99.99
2024-03-12T06:04:56.292Z,99.99
2024-03-12T06:05:27.936Z,99.99
2024-03-12T06:05:59.943Z,99.99
2024-03-12T06:06:33.727Z,99.99
2024-03-12T06:07:05.778Z,99.99
2024-03-12T06:07:37.765Z,99.99
2024-03-12T06:08:09.526Z,99.99
2024-03-12T06:08:41.256Z,99.99
2024-03-12T06:09:12.968Z,99.99
2024-03-12T06:09:44.780Z,99.99
2024-03-12T06:10:17.958Z,99.99
2024-03-12T06:10:50.391Z,99.99
2024-03-12T06:11:25.060Z,99.99
2024-03-12T06:11:57.959Z,99.99
2024-03-12T06:12:29.750Z,99.99
2024-03-12T06:13:01.651Z,99.99
2024-03-12T06:13:33.852Z,99.99
2024-03-12T06:14:07.238Z,99.99
2024-03-12T06:14:38.966Z,99.99
2024-03-12T06:15:10.795Z,99.99
2024-03-12T06:15:42.476Z,99.99
2024-03-12T06:16:14.247Z,99.99
2024-03-12T06:16:48.148Z,99.99
2024-03-12T06:17:19.814Z,99.99
2024-03-12T06:17:51.957Z,99.99
2024-03-12T06:18:24.317Z,99.99
2024-03-12T06:18:56.110Z,99.99
2024-03-12T06:19:27.860Z,99.99
2024-03-12T06:19:59.893Z,99.99
2024-03-12T06:20:32.099Z,99.99
2024-03-12T06:21:04.231Z,99.99
2024-03-12T06:21:35.936Z,99.99
2024-03-12T06:22:09.673Z,99.99
2024-03-12T06:22:45.120Z,99.99
2024-03-12T06:23:20.097Z,99.99
2024-03-12T06:23:55.052Z,99.99
2024-03-12T06:24:27.306Z,99.99
2024-03-12T06:25:00.355Z,99.99
2024-03-12T06:25:32.401Z,99.99
2024-03-12T06:26:04.714Z,99.99
2024-03-12T06:26:37.444Z,99.99
2024-03-12T06:27:09.774Z,99.99
2024-03-12T06:27:42.896Z,99.99
2024-03-12T06:28:15.268Z,99.99
2024-03-12T06:28:46.946Z,99.99
2024-03-12T06:29:18.927Z,99.99
2024-03-12T06:29:53.258Z,99.99
2024-03-12T06:30:24.909Z,99.99
2024-03-12T06:30:58.101Z,99.99
2024-03-12T06:31:32.561Z,99.99
2024-03-12T06:32:04.390Z,99.99
2024-03-12T06:32:36.225Z,99.99
2024-03-12T06:33:08.097Z,99.99
2024-03-12T06:33:44.006Z,99.99
2024-03-12T06:34:17.338Z,99.99
2024-03-12T06:34:49.560Z,99.99
2024-03-12T06:35:21.206Z,99.99
2024-03-12T06:35:53.051Z,99.99
2024-03-12T06:36:24.847Z,99.99
2024-03-12T06:36:59.152Z,99.99
2024-03-12T06:37:30.988Z,99.99
2024-03-12T06:38:06.206Z,99.99
2024-03-12T06:38:37.957Z,99.99
2024-03-12T06:39:18.902Z,99.99
2024-03-12T06:39:52.622Z,99.99
2024-03-12T06:40:26.542Z,99.99
2024-03-12T06:40:58.320Z,99.99
2024-03-12T06:41:32.730Z,99.99
2024-03-12T06:42:08.826Z,99.99
2024-03-12T06:42:42.937Z,99.99
2024-03-12T06:43:16.291Z,99.99
2024-03-12T06:43:47.980Z,99.99
2024-03-12T06:44:23.389Z,99.99
2024-03-12T06:44:56.022Z,99.99
2024-03-12T06:45:28.727Z,99.99
2024-03-12T06:46:00.878Z,99.99
2024-03-12T06:46:32.658Z,99.99
2024-03-12T06:47:07.230Z,99.99
2024-03-12T06:47:41.633Z,99.99
2024-03-12T06:48:15.645Z,99.99
2024-03-12T06:48:47.519Z,99.99
2024-03-12T06:49:21.604Z,99.99
2024-03-12T06:49:53.346Z,99.99
2024-03-12T06:50:26.785Z,99.99
2024-03-12T06:50:58.448Z,99.99
2024-03-12T06:51:33.318Z,99.99
2024-03-12T06:52:08.188Z,99.99
2024-03-12T06:52:39.948Z,99.99
2024-03-12T06:53:12.098Z,99.99
2024-03-12T06:53:44.481Z,99.99
2024-03-12T06:54:16.807Z,99.99
2024-03-12T06:54:49.433Z,99.99
2024-03-12T06:55:28.360Z,99.99
2024-03-12T06:56:00.364Z,99.99
2024-03-12T06:56:32.786Z,99.99
2024-03-12T06:57:08.563Z,99.99
2024-03-12T06:57:48.971Z,99.99
2024-03-12T06:58:22.788Z,99.99
2024-03-12T06:58:54.638Z,99.99
2024-03-12T06:59:26.586Z,99.99
2024-03-12T06:59:58.957Z,99.99
2024-03-12T07:00:38.369Z,99.99
2024-03-12T07:01:11.117Z,99.85
2024-03-12T07:01:43.761Z,99.54
2024-03-12T07:02:18.397Z,99.36
2024-03-12T07:02:51.240Z,99.58
2024-03-12T07:03:24.187Z,99.53
2024-03-12T07:03:58.711Z,99.46
2024-03-12T07:04:36.383Z,99.58
2024-03-12T07:05:11.063Z,99.94
2024-03-12T07:05:48.489Z,99.65
2024-03-12T07:06:21.109Z,99.38
2024-03-12T07:06:52.850Z,99.19